createdAt,value
2022-10-26T04:02:00.881Z,101068.94
2022-10-26T04:05:04.086Z,101068.94
2022-10-26T04:08:06.133Z,101070.53
2022-10-26T04:11:08.447Z,101082.84
2022-10-26T04:14:10.467Z,101081.53
2022-10-26T04:17:12.779Z,101081.78
2022-10-26T04:20:15.464Z,101081.53
2022-10-26T04:23:19.375Z,101082.59
2022-10-26T04:26:21.461Z,101082.03
2022-10-26T04:29:23.758Z,101085.28
2022-10-26T04:32:26.678Z,101086.59
2022-10-26T04:35:29.625Z,101074.53
2022-10-26T04:38:31.665Z,101071.84
2022-10-26T04:41:33.965Z,101085.28
2022-10-26T04:44:35.977Z,101079.34
2022-10-26T04:47:39.084Z,101076.66
2022-10-26T04:50:41.429Z,101079.59
2022-10-26T04:53:44.278Z,101074.53
2022-10-26T04:59:53.501Z,101072.38
2022-10-26T05:03:02.950Z,101070.50
2022-10-26T05:06:05.412Z,101076.09
2022-10-26T05:09:07.470Z,101073.16
2022-10-26T05:12:09.780Z,101074.19
2022-10-26T05:15:14.506Z,101080.66
2022-10-26T05:18:16.916Z,101084.41
2022-10-26T05:21:21.565Z,101091.16
2022-10-26T05:24:23.875Z,101090.34
2022-10-26T05:27:25.936Z,101088.47
2022-10-26T05:30:29.338Z,101103.69
2022-10-26T05:33:31.360Z,101102.13
2022-10-26T05:36:33.674Z,101104.81
2022-10-26T05:39:35.709Z,101105.38
2022-10-26T05:42:37.986Z,101103.75
2022-10-26T05:45:40.010Z,101112.59
2022-10-26T05:48:42.428Z,101110.44
2022-10-26T05:51:44.586Z,101123.88
2022-10-26T05:54:46.968Z,101120.12
2022-10-26T05:57:49.551Z,101121.22
2022-10-26T06:01:07.893Z,101116.41
2022-10-26T06:04:25.495Z,101121.22
2022-10-26T06:07:27.910Z,101116.94
2022-10-26T06:10:30.570Z,101123.09
2022-10-26T06:13:32.980Z,101123.94
2022-10-26T06:16:53.371Z,101131.75
2022-10-26T06:20:08.639Z,101139.81
2022-10-26T06:23:29.618Z,101144.63
2022-10-26T06:26:56.304Z,101140.09
2022-10-26T06:30:07.726Z,101144.66
2022-10-26T06:33:24.928Z,101147.84
2022-10-26T06:36:33.112Z,101134.72
2022-10-26T06:39:42.419Z,101137.69
2022-10-26T06:42:45.333Z,101143.84
2022-10-26T06:45:51.195Z,101146.53
2022-10-26T06:49:07.074Z,101148.97
2022-10-26T06:52:19.427Z,101152.22
2022-10-26T06:55:22.265Z,101157.31
2022-10-26T06:58:28.971Z,101162.13
2022-10-26T07:01:31.368Z,101162.13
2022-10-26T07:04:34.245Z,101163.72
2022-10-26T07:07:41.123Z,101164.28
2022-10-26T07:10:43.578Z,101163.72
2022-10-26T07:13:45.814Z,101161.59
2022-10-26T07:16:47.854Z,101166.69
2022-10-26T07:19:50.141Z,101167.25
2022-10-26T07:22:56.663Z,101171.25
2022-10-26T07:26:00.258Z,101178.00
2022-10-26T07:29:02.331Z,101175.31
2022-10-26T07:32:04.923Z,101180.94
2022-10-26T07:35:07.690Z,101183.34
2022-10-26T07:38:12.213Z,101190.38
2022-10-26T07:41:14.305Z,101188.50
2022-10-26T07:44:16.609Z,101188.47
2022-10-26T07:47:30.472Z,101188.19
2022-10-26T07:50:32.842Z,101185.25
2022-10-26T07:53:34.897Z,101175.31
2022-10-26T07:56:37.190Z,101182.56
2022-10-26T07:59:39.410Z,101177.16
2022-10-26T08:02:42.179Z,101179.34
2022-10-26T08:05:51.211Z,101176.09
2022-10-26T08:08:53.265Z,101179.06
2022-10-26T08:11:55.542Z,101178.50
2022-10-26T08:14:58.127Z,101175.81
2022-10-26T08:18:00.652Z,101174.47
2022-10-26T08:21:11.124Z,101175.81
2022-10-26T08:24:14.160Z,101178.78
2022-10-26T08:27:16.535Z,101182.53
2022-10-26T08:30:18.892Z,101186.81
2022-10-26T08:33:21.718Z,101180.88
2022-10-26T08:36:26.248Z,101181.41
2022-10-26T08:39:30.534Z,101180.25
2022-10-26T08:42:36.957Z,101178.09
2022-10-26T08:45:42.629Z,101181.03
2022-10-26T08:48:54.366Z,101179.09
2022-10-26T08:52:01.688Z,101189.31
2022-10-26T08:55:09.029Z,101186.59
2022-10-26T08:58:16.355Z,101187.56
2022-10-26T09:01:19.095Z,101199.44
2022-10-26T09:04:27.586Z,101198.03
2022-10-26T09:07:57.050Z,101203.06
2022-10-26T09:11:28.157Z,101199.56
2022-10-26T09:15:08.682Z,101198.75
2022-10-26T09:18:48.867Z,101197.38
2022-10-26T09:22:18.650Z,101200.44
2022-10-26T09:25:24.450Z,101201.69
2022-10-26T09:28:31.819Z,101211.12
2022-10-26T09:31:46.308Z,101208.94
2022-10-26T09:34:52.748Z,101215.06
2022-10-26T09:38:06.052Z,101221.53
2022-10-26T09:41:08.260Z,101222.59
2022-10-26T09:44:25.958Z,101212.44
2022-10-26T09:47:52.836Z,101222.41
2022-10-26T09:51:00.514Z,101217.56
2022-10-26T09:54:14.964Z,101219.59
2022-10-26T09:57:19.997Z,101218.00
2022-10-26T10:00:25.993Z,101213.00
2022-10-26T10:03:30.862Z,101223.91
2022-10-26T10:06:32.884Z,101224.94
2022-10-26T10:09:35.177Z,101218.69
2022-10-26T10:12:37.210Z,101220.19
2022-10-26T10:15:39.537Z,101226.06
2022-10-26T10:18:42.702Z,101221.78
2022-10-26T10:21:49.047Z,101224.47
2022-10-26T10:24:59.495Z,101227.94
2022-10-26T10:28:03.650Z,101233.81
2022-10-26T10:31:28.121Z,101229.63
2022-10-26T10:34:31.783Z,101223.34
2022-10-26T10:37:44.245Z,101228.66
2022-10-26T10:40:52.302Z,101214.59
2022-10-26T10:44:02.674Z,101220.78
2022-10-26T10:47:07.288Z,101223.66
2022-10-26T10:50:20.555Z,101216.78
2022-10-26T10:53:43.582Z,101216.94
2022-10-26T10:56:51.149Z,101210.28
2022-10-26T11:00:04.689Z,101210.94
2022-10-26T11:03:32.654Z,101213.75
2022-10-26T11:06:38.148Z,101201.72
2022-10-26T11:09:43.567Z,101207.25
2022-10-26T11:12:59.625Z,101205.56
2022-10-26T11:16:05.814Z,101211.28
2022-10-26T11:19:19.953Z,101207.47
2022-10-26T11:22:27.908Z,101201.66
2022-10-26T11:25:37.049Z,101201.81
2022-10-26T11:29:01.130Z,101204.53
2022-10-26T11:32:23.514Z,101190.00
2022-10-26T11:35:35.494Z,101200.34
2022-10-26T11:38:59.953Z,101191.97
2022-10-26T11:42:18.584Z,101186.22
2022-10-26T11:45:39.709Z,101188.19
2022-10-26T11:49:04.773Z,101185.47
2022-10-26T11:52:18.062Z,101182.63
2022-10-26T11:55:22.662Z,101184.38
2022-10-26T11:58:27.625Z,101176.19
2022-10-26T12:01:31.544Z,101178.22
2022-10-26T12:04:38.122Z,101175.31
2022-10-26T12:07:41.994Z,101172.19
2022-10-26T12:10:50.898Z,101172.13
2022-10-26T12:14:07.257Z,101176.47
2022-10-26T12:17:30.470Z,101172.31
2022-10-26T12:21:04.529Z,101169.97
2022-10-26T12:24:27.787Z,101171.41
2022-10-26T12:27:44.024Z,101166.63
2022-10-26T12:30:46.317Z,101171.41
2022-10-26T12:33:51.652Z,101167.28
2022-10-26T12:36:56.775Z,101169.91
2022-10-26T12:40:32.916Z,101159.81
2022-10-26T12:43:37.984Z,101170.31
2022-10-26T12:46:41.570Z,101159.13
2022-10-26T12:50:05.850Z,101157.12
2022-10-26T12:53:17.505Z,101162.53
2022-10-26T12:56:36.271Z,101155.22
2022-10-26T13:00:00.969Z,101150.81
2022-10-26T13:03:10.994Z,101146.13
2022-10-26T13:06:38.475Z,101151.94
2022-10-26T13:09:45.782Z,101152.53
2022-10-26T13:12:50.221Z,101147.81
2022-10-26T13:15:55.640Z,101151.03
2022-10-26T13:18:59.281Z,101149.34
2022-10-26T13:22:01.765Z,101146.63
2022-10-26T13:25:06.261Z,101151.31
2022-10-26T13:28:37.644Z,101155.16
2022-10-26T13:31:41.441Z,101159.56
2022-10-26T13:34:44.473Z,101156.47
2022-10-26T13:37:49.207Z,101158.84
2022-10-26T13:41:05.959Z,101164.19
2022-10-26T13:44:18.325Z,101157.66
2022-10-26T13:47:29.840Z,101155.94
2022-10-26T13:54:15.963Z,101161.97
2022-10-26T13:57:37.952Z,101156.94
2022-10-26T14:00:40.503Z,101167.78
2022-10-26T14:03:44.056Z,101164.75
2022-10-26T14:06:51.517Z,101162.03
2022-10-26T14:09:56.581Z,101167.78
2022-10-26T14:13:00.146Z,101163.75
2022-10-26T14:16:09.314Z,101163.75
2022-10-26T14:19:19.631Z,101166.97
2022-10-26T14:22:27.325Z,101173.50
2022-10-26T14:25:41.976Z,101165.37
2022-10-26T14:28:50.461Z,101166.19
2022-10-26T14:31:54.797Z,101171.88
2022-10-26T14:34:57.173Z,101173.25
2022-10-26T14:38:15.541Z,101168.97
2022-10-26T14:41:18.185Z,101161.66
2022-10-26T14:44:23.317Z,101157.03
2022-10-26T14:47:31.864Z,101158.84
2022-10-26T14:50:36.143Z,101168.38
2022-10-26T14:53:41.290Z,101161.84
2022-10-26T14:56:44.210Z,101165.66
2022-10-26T15:00:00.593Z,101171.59
2022-10-26T15:03:02.783Z,101164.25
2022-10-26T15:06:30.284Z,101172.97
2022-10-26T15:09:42.974Z,101172.37
2022-10-26T15:12:45.275Z,101171.59
2022-10-26T15:15:49.912Z,101177.88
2022-10-26T15:19:09.145Z,101174.97
2022-10-26T15:22:22.260Z,101180.78
2022-10-26T15:25:28.254Z,101187.28
2022-10-26T15:28:31.690Z,101185.91
2022-10-26T15:31:34.321Z,101183.47
2022-10-26T15:34:36.385Z,101186.59
2022-10-26T15:37:38.915Z,101188.22
2022-10-26T15:40:44.439Z,101188.22
2022-10-26T15:43:48.783Z,101192.22
